Time;durP1;ratioP1;P1;durP2;ratioP2;P2;SDS_P1;SDS_P2;PMS_P1;PMS_P2;Temp;Humidity;BMP_temperature;BMP_pressure;BME280_temperature;BME280_humidity;BME280_pressure;Samples;Min_cycle;Max_cycle;Signal;HPM_P1;HPM_P2
2022/11/03 00:00:09;;;;;;;17.83;2.90;;;11.00;99.90;;;;;;5026639;28;20052;-48
2022/11/03 00:02:36;;;;;;;16.25;2.88;;;11.00;99.90;;;;;;5049729;28;20048;-44
2022/11/03 01:48:03;;;;;;;17.77;2.95;;;10.80;99.90;;;;;;5034874;28;20065;-44
2022/11/03 01:50:30;;;;;;;19.30;3.70;;;10.70;99.90;;;;;;5052365;28;20098;-45
2022/11/03 01:52:57;;;;;;;19.75;3.53;;;10.70;99.90;;;;;;5052097;28;20115;-44
2022/11/03 01:55:26;;;;;;;22.80;3.50;;;10.70;99.90;;;;;;5033196;28;20089;-46
2022/11/03 01:57:54;;;;;;;15.82;3.08;;;10.70;99.90;;;;;;5047927;28;20056;-44
2022/11/03 02:00:21;;;;;;;13.60;2.40;;;10.70;99.90;;;;;;5048959;28;20041;-42
2022/11/03 02:02:48;;;;;;;19.90;3.33;;;10.70;99.90;;;;;;5051636;28;20130;-47
2022/11/03 02:05:16;;;;;;;20.60;3.80;;;10.70;99.90;;;;;;5035226;28;20091;-47
2022/11/03 02:07:45;;;;;;;19.85;3.78;;;10.70;99.90;;;;;;5050756;28;20131;-43
2022/11/03 02:10:12;;;;;;;14.07;2.75;;;10.70;99.90;;;;;;5035883;28;20053;-46
2022/11/03 02:12:39;;;;;;;13.68;2.75;;;10.60;99.90;;;;;;5048601;28;20091;-44
2022/11/03 02:15:07;;;;;;;24.40;3.08;;;10.70;99.90;;;;;;5035086;28;20069;-44
2022/11/03 02:17:34;;;;;;;18.40;3.42;;;10.70;99.90;;;;;;5032347;28;20056;-44
2022/11/03 02:20:02;;;;;;;24.48;3.47;;;10.70;99.90;;;;;;5034802;28;20071;-45
2022/11/03 02:22:43;;;;;;;18.98;3.55;;;10.70;99.90;;;;;;5034325;28;20063;-44
2022/11/03 02:25:17;;;;;;;14.63;3.45;;;10.70;99.90;;;;;;5050168;28;20473;-43
2022/11/03 02:27:45;;;;;;;18.02;3.13;;;10.70;99.90;;;;;;5052951;28;20087;-44
2022/11/03 02:30:12;;;;;;;18.25;4.07;;;10.70;99.90;;;;;;5053350;28;20045;-44
2022/11/03 02:32:42;;;;;;;19.42;3.42;;;10.70;99.90;;;;;;5051087;28;20060;-44
2022/11/03 02:35:12;;;;;;;18.58;3.10;;;10.70;99.90;;;;;;5051359;28;20045;-45
2022/11/03 02:37:41;;;;;;;19.90;3.72;;;10.60;99.90;;;;;;5052169;28;20542;-43
2022/11/03 02:40:10;;;;;;;14.43;3.13;;;10.70;99.90;;;;;;5052388;28;20476;-43
2022/11/03 02:42:36;;;;;;;17.42;3.38;;;10.70;99.90;;;;;;5052341;28;20072;-44
2022/11/03 02:45:07;;;;;;;21.48;3.15;;;10.70;99.90;;;;;;5034569;28;20053;-42
2022/11/03 02:47:33;;;;;;;13.48;2.72;;;10.70;99.90;;;;;;5046944;28;20045;-44
2022/11/03 02:50:00;;;;;;;21.42;3.05;;;10.70;99.90;;;;;;5024942;28;20509;-43
2022/11/03 02:52:35;;;;;;;16.42;3.40;;;10.70;99.90;;;;;;5050542;28;20072;-42
2022/11/03 02:55:02;;;;;;;19.48;3.28;;;10.70;99.90;;;;;;5030625;28;20131;-45
2022/11/03 02:57:30;;;;;;;17.60;2.97;;;10.70;99.90;;;;;;5033867;28;20086;-44
2022/11/03 02:59:58;;;;;;;19.73;2.88;;;10.80;99.90;;;;;;5052988;28;20111;-43
2022/11/03 03:02:28;;;;;;;14.77;2.92;;;10.70;99.90;;;;;;5049185;28;20088;-45
2022/11/03 03:04:56;;;;;;;23.67;3.63;;;10.80;99.90;;;;;;5050720;28;20088;-43
2022/11/03 03:07:25;;;;;;;20.80;2.97;;;10.70;99.90;;;;;;5052045;28;20084;-47
2022/11/03 03:09:54;;;;;;;18.20;3.20;;;10.80;99.90;;;;;;5031582;28;20084;-46
2022/11/03 03:12:21;;;;;;;19.05;3.50;;;10.80;99.90;;;;;;5052137;28;20044;-45
2022/11/03 03:14:48;;;;;;;16.40;3.72;;;10.80;99.90;;;;;;5032146;28;20547;-46
2022/11/03 03:17:17;;;;;;;15.05;3.05;;;10.80;99.90;;;;;;5050212;28;20106;-43
2022/11/03 03:19:49;;;;;;;18.67;3.22;;;10.80;99.90;;;;;;5052398;28;20055;-43
2022/11/03 03:22:19;;;;;;;14.38;3.05;;;10.80;99.90;;;;;;5050864;28;20061;-43
2022/11/03 03:24:48;;;;;;;18.83;2.75;;;10.80;99.90;;;;;;5048490;28;20103;-44
2022/11/03 03:27:14;;;;;;;15.68;3.00;;;10.80;99.90;;;;;;5051153;28;20052;-44
2022/11/03 03:29:45;;;;;;;12.38;2.58;;;10.80;99.90;;;;;;5051749;28;20128;-45
2022/11/03 03:32:11;;;;;;;16.08;2.78;;;10.80;99.90;;;;;;5033928;28;21510;-46
2022/11/03 03:34:39;;;;;;;19.05;3.42;;;10.80;99.90;;;;;;5032882;28;20459;-45
2022/11/03 03:37:07;;;;;;;18.00;3.05;;;10.80;99.90;;;;;;5051934;28;20087;-45
2022/11/03 03:39:35;;;;;;;15.20;3.05;;;10.80;99.90;;;;;;5034128;28;20284;-49
2022/11/03 03:42:02;;;;;;;27.80;3.28;;;10.80;99.90;;;;;;5034021;28;20069;-46
2022/11/03 03:44:29;;;;;;;13.20;3.25;;;10.80;99.90;;;;;;5027247;28;20084;-45
2022/11/03 03:46:59;;;;;;;15.00;2.70;;;10.80;99.90;;;;;;5050575;28;20049;-45
2022/11/03 03:49:26;;;;;;;22.27;3.30;;;10.80;99.90;;;;;;5051184;28;20099;-48
2022/11/03 03:51:53;;;;;;;15.88;3.20;;;10.80;99.90;;;;;;5051450;28;20088;-48
2022/11/03 03:54:21;;;;;;;14.90;3.47;;;10.80;99.90;;;;;;5050157;28;20063;-46
2022/11/03 03:56:51;;;;;;;21.02;3.35;;;10.80;99.90;;;;;;5049480;28;20094;-45
2022/11/03 03:59:18;;;;;;;13.57;2.90;;;10.80;99.90;;;;;;5050760;28;20551;-48
2022/11/03 04:01:45;;;;;;;16.02;2.67;;;10.80;99.90;;;;;;5032207;28;20134;-49
2022/11/03 04:04:11;;;;;;;12.25;2.63;;;10.80;99.90;;;;;;5051236;28;20052;-45
2022/11/03 04:06:38;;;;;;;13.75;3.58;;;10.80;99.90;;;;;;5051324;28;20134;-43
2022/11/03 04:09:05;;;;;;;15.35;3.50;;;10.80;99.90;;;;;;5051711;28;20095;-43
2022/11/03 04:22:32;;;;;;;15.80;2.90;;;10.80;99.90;;;;;;5034652;28;20053;-44
2022/11/03 04:24:59;;;;;;;16.17;3.60;;;10.80;99.90;;;;;;5053696;28;20211;-43
2022/11/03 04:27:31;;;;;;;21.45;3.40;;;10.80;99.90;;;;;;5036074;28;20440;-48
2022/11/03 04:30:02;;;;;;;25.13;4.07;;;10.80;99.90;;;;;;5037380;28;20045;-44
2022/11/03 04:32:29;;;;;;;11.98;2.75;;;10.80;99.90;;;;;;5033740;28;20061;-45
2022/11/03 04:34:55;;;;;;;16.83;3.58;;;10.80;99.90;;;;;;5034405;28;20049;-46
2022/11/03 04:37:22;;;;;;;14.25;3.08;;;10.80;99.90;;;;;;5054843;28;20045;-44
2022/11/03 04:39:49;;;;;;;15.48;3.40;;;10.80;99.90;;;;;;5053769;28;20489;-44
2022/11/03 04:42:17;;;;;;;20.35;3.40;;;10.80;99.90;;;;;;5035839;28;20126;-46
2022/11/03 04:44:46;;;;;;;22.00;2.83;;;10.90;99.90;;;;;;5054762;28;20089;-44
2022/11/03 04:47:13;;;;;;;20.25;3.40;;;10.90;99.90;;;;;;5053992;28;20049;-48
2022/11/03 04:49:40;;;;;;;17.60;3.53;;;10.90;99.90;;;;;;5036266;28;20056;-47
2022/11/03 04:52:10;;;;;;;17.85;2.90;;;10.90;99.90;;;;;;5027158;28;20049;-45
2022/11/03 04:54:37;;;;;;;16.60;3.15;;;10.90;99.90;;;;;;5031793;28;20077;-44
2022/11/03 04:57:08;;;;;;;19.48;3.30;;;10.90;99.90;;;;;;5034106;28;20119;-42
2022/11/03 04:59:35;;;;;;;19.87;3.50;;;10.90;99.90;;;;;;5050471;28;20053;-44
2022/11/03 05:02:04;;;;;;;17.88;3.22;;;10.90;99.90;;;;;;5038601;28;20133;-43
2022/11/03 05:04:30;;;;;;;14.40;3.00;;;10.90;99.90;;;;;;5053648;28;20057;-45
2022/11/03 05:06:57;;;;;;;22.63;3.00;;;10.90;99.90;;;;;;5053042;28;20049;-45
2022/11/03 05:09:26;;;;;;;16.42;3.40;;;11.00;99.90;;;;;;5053162;28;20154;-43
2022/11/03 05:11:53;;;;;;;13.57;3.50;;;11.00;99.90;;;;;;5053795;28;20128;-44
2022/11/03 05:14:21;;;;;;;11.68;2.80;;;11.00;99.90;;;;;;5036549;28;20473;-43
2022/11/03 05:16:48;;;;;;;13.05;2.70;;;10.90;99.90;;;;;;5035493;28;20041;-44
2022/11/03 05:19:19;;;;;;;19.13;3.42;;;10.90;99.90;;;;;;5053029;28;20049;-46
2022/11/03 05:21:48;;;;;;;12.80;2.60;;;10.90;99.90;;;;;;5035038;28;20094;-43
2022/11/03 05:24:15;;;;;;;18.95;3.10;;;10.90;99.90;;;;;;5035995;28;20124;-43
2022/11/03 05:26:41;;;;;;;13.15;2.65;;;10.90;99.90;;;;;;5034296;28;20480;-46
2022/11/03 05:29:15;;;;;;;16.30;2.90;;;11.00;99.90;;;;;;5051553;28;20558;-46
2022/11/03 05:31:42;;;;;;;17.98;2.92;;;11.10;99.90;;;;;;5043177;28;20049;-44
2022/11/03 05:34:29;;;;;;;19.52;3.08;;;11.00;99.90;;;;;;5052306;28;20045;-45
2022/11/03 05:36:58;;;;;;;14.80;2.67;;;11.00;99.90;;;;;;5035200;28;20075;-44
2022/11/03 05:39:28;;;;;;;18.60;3.50;;;11.00;99.90;;;;;;5034745;28;20044;-45
2022/11/03 05:41:55;;;;;;;11.38;2.50;;;11.00;99.90;;;;;;5051642;28;20049;-45
2022/11/03 05:44:26;;;;;;;15.68;3.17;;;11.00;99.90;;;;;;5024923;28;20557;-45
2022/11/03 05:46:52;;;;;;;17.60;3.38;;;11.00;99.90;;;;;;5050695;28;20378;-47
2022/11/03 05:49:20;;;;;;;13.43;3.28;;;10.90;99.90;;;;;;5052155;28;20076;-45
2022/11/03 05:51:48;;;;;;;19.95;3.15;;;11.00;99.90;;;;;;5044287;28;20071;-46
2022/11/03 05:54:19;;;;;;;17.10;3.33;;;11.00;99.90;;;;;;5053204;28;20132;-45
2022/11/03 05:56:46;;;;;;;16.45;3.25;;;11.00;99.90;;;;;;5051701;28;20481;-46
2022/11/03 05:59:13;;;;;;;16.00;3.53;;;11.00;99.90;;;;;;5018925;28;20505;-47
2022/11/03 06:01:39;;;;;;;13.10;2.97;;;11.00;99.90;;;;;;5028701;28;20084;-45
2022/11/03 06:04:15;;;;;;;17.45;3.22;;;10.90;99.90;;;;;;5042654;28;20110;-45
2022/11/03 06:06:42;;;;;;;23.23;4.00;;;10.90;99.90;;;;;;5034995;28;20053;-43
2022/11/03 06:09:13;;;;;;;15.10;3.25;;;10.90;99.90;;;;;;5049789;28;20045;-46
2022/11/03 06:11:40;;;;;;;21.63;3.38;;;10.90;99.90;;;;;;5035128;28;20061;-45
2022/11/03 06:14:13;;;;;;;16.40;3.25;;;10.90;99.90;;;;;;5049206;28;20503;-43
2022/11/03 06:16:40;;;;;;;18.13;3.95;;;10.90;99.90;;;;;;5049184;28;20053;-45
2022/11/03 06:19:19;;;;;;;18.33;3.55;;;10.90;99.90;;;;;;5051061;28;20448;-44
2022/11/03 06:21:46;;;;;;;18.05;3.30;;;10.90;99.90;;;;;;5051026;28;20131;-43
2022/11/03 06:24:15;;;;;;;19.63;3.78;;;10.90;99.90;;;;;;5050327;28;20130;-42
2022/11/03 06:26:41;;;;;;;20.33;3.65;;;10.90;99.90;;;;;;5047907;28;20045;-44
2022/11/03 06:29:11;;;;;;;18.23;3.65;;;10.90;99.90;;;;;;5037544;28;20330;-44
2022/11/03 06:31:38;;;;;;;10.10;2.40;;;10.90;99.90;;;;;;5034376;28;20131;-45
2022/11/03 06:34:09;;;;;;;18.25;3.33;;;10.90;99.90;;;;;;5051535;28;20080;-47
2022/11/03 06:36:35;;;;;;;15.07;3.60;;;10.90;99.90;;;;;;5050357;28;20571;-44
2022/11/03 06:39:03;;;;;;;13.30;3.15;;;10.90;99.90;;;;;;5034213;28;20438;-44
2022/11/03 06:41:32;;;;;;;14.75;3.50;;;10.90;99.90;;;;;;5048739;28;20073;-48
2022/11/03 06:44:01;;;;;;;22.80;3.95;;;10.90;99.90;;;;;;5051849;28;20447;-44
2022/11/03 06:46:28;;;;;;;15.38;3.10;;;10.80;99.90;;;;;;5032619;28;20131;-42
2022/11/03 06:48:57;;;;;;;12.73;3.55;;;10.90;99.90;;;;;;5032112;28;20045;-46
2022/11/03 06:51:25;;;;;;;12.27;3.28;;;10.90;99.90;;;;;;5032894;28;20080;-48
2022/11/03 06:53:52;;;;;;;14.10;3.35;;;10.90;99.90;;;;;;5051224;28;20114;-44
2022/11/03 06:56:20;;;;;;;18.23;3.67;;;10.90;99.90;;;;;;5050930;28;20053;-45
2022/11/03 06:58:48;;;;;;;19.02;4.50;;;10.90;99.90;;;;;;5034963;28;20493;-44
2022/11/03 07:01:15;;;;;;;21.08;3.38;;;10.90;99.90;;;;;;5048068;28;20492;-44
2022/11/03 07:03:42;;;;;;;13.82;3.38;;;10.90;99.90;;;;;;5049175;28;20140;-45
2022/11/03 07:06:15;;;;;;;16.25;3.50;;;10.90;99.90;;;;;;5049963;28;20048;-44
2022/11/03 07:08:42;;;;;;;12.20;2.92;;;11.00;99.90;;;;;;5035111;28;20448;-44
2022/11/03 07:11:14;;;;;;;16.05;3.65;;;11.00;99.90;;;;;;5049130;28;20123;-44
2022/11/03 07:13:41;;;;;;;13.27;3.20;;;11.00;99.90;;;;;;5033691;28;20102;-45
2022/11/03 07:16:13;;;;;;;16.48;3.75;;;11.00;99.90;;;;;;5051833;28;20091;-44
2022/11/03 07:18:41;;;;;;;17.15;3.47;;;11.00;99.90;;;;;;5052695;28;20052;-44
2022/11/03 07:21:21;;;;;;;16.80;3.65;;;11.10;99.90;;;;;;5050604;28;20055;-46
2022/11/03 07:23:48;;;;;;;18.08;3.90;;;11.10;99.90;;;;;;5034279;28;20098;-44
2022/11/03 07:26:15;;;;;;;16.63;3.83;;;11.20;99.90;;;;;;5052563;28;20053;-42
2022/11/03 07:28:41;;;;;;;18.52;3.40;;;11.20;99.90;;;;;;5034706;28;20086;-45
2022/11/03 07:31:15;;;;;;;18.70;3.63;;;11.30;99.90;;;;;;5033637;28;20056;-44
2022/11/03 07:33:42;;;;;;;21.42;3.85;;;11.30;99.90;;;;;;5051745;28;20048;-43
2022/11/03 07:36:10;;;;;;;14.00;2.97;;;11.40;99.90;;;;;;5052342;28;20084;-47
2022/11/03 07:38:37;;;;;;;17.05;3.53;;;11.40;99.90;;;;;;5052656;28;20049;-47
2022/11/03 07:41:04;;;;;;;18.05;3.65;;;11.50;99.90;;;;;;5033870;28;20053;-44
2022/11/03 07:43:31;;;;;;;16.73;3.47;;;11.50;99.90;;;;;;5051712;28;20049;-44
2022/11/03 07:45:59;;;;;;;18.63;3.90;;;11.50;99.90;;;;;;5050846;28;20056;-48
2022/11/03 07:48:28;;;;;;;16.75;3.75;;;11.60;99.90;;;;;;5031816;28;20114;-44
2022/11/03 07:50:56;;;;;;;21.60;4.43;;;11.50;99.90;;;;;;5050773;28;20095;-45
2022/11/03 07:53:28;;;;;;;13.27;3.17;;;11.60;99.90;;;;;;5033296;28;20126;-46
2022/11/03 07:55:55;;;;;;;16.23;3.45;;;11.60;99.90;;;;;;5035513;28;20400;-45
2022/11/03 07:58:25;;;;;;;18.80;3.67;;;11.70;99.90;;;;;;5037439;28;20053;-45
2022/11/03 08:00:56;;;;;;;22.10;3.83;;;11.70;99.90;;;;;;5047504;28;20125;-45
2022/11/03 08:03:31;;;;;;;15.95;3.33;;;11.80;99.90;;;;;;5054683;28;20064;-43
2022/11/03 08:05:58;;;;;;;19.35;3.60;;;11.80;99.90;;;;;;5038986;28;20461;-48
2022/11/03 08:08:25;;;;;;;13.55;2.95;;;11.80;99.90;;;;;;5036919;28;20094;-48
2022/11/03 08:10:52;;;;;;;19.10;3.40;;;11.80;99.90;;;;;;5055325;28;20110;-44
2022/11/03 08:13:18;;;;;;;12.70;3.35;;;11.90;99.90;;;;;;5053884;28;20472;-43
2022/11/03 08:15:45;;;;;;;19.35;3.63;;;11.90;99.90;;;;;;5028428;28;20119;-46
2022/11/03 08:18:12;;;;;;;14.90;3.60;;;12.00;99.90;;;;;;5037108;28;20103;-46
2022/11/03 08:20:40;;;;;;;21.75;3.65;;;12.00;99.90;;;;;;5051527;28;20567;-44
2022/11/03 08:23:07;;;;;;;15.57;3.47;;;12.10;99.90;;;;;;5054364;28;20053;-46
2022/11/03 08:25:34;;;;;;;17.25;4.07;;;12.10;99.90;;;;;;5037549;28;20088;-49
2022/11/03 08:28:01;;;;;;;15.02;3.95;;;12.10;99.90;;;;;;5053785;28;20193;-45
2022/11/03 08:30:28;;;;;;;13.23;3.40;;;12.20;99.90;;;;;;5055814;28;20075;-47
2022/11/03 08:32:55;;;;;;;17.73;4.38;;;12.20;99.90;;;;;;5052388;28;20045;-46
2022/11/03 08:35:22;;;;;;;17.98;3.92;;;12.30;99.90;;;;;;5054023;28;20496;-48
2022/11/03 08:37:50;;;;;;;16.20;3.75;;;12.30;99.90;;;;;;5041533;28;20058;-46
2022/11/03 08:40:17;;;;;;;15.32;3.45;;;12.30;99.90;;;;;;5037932;28;20406;-48
2022/11/03 08:42:44;;;;;;;15.70;3.50;;;12.30;99.90;;;;;;5053252;28;20052;-44
2022/11/03 08:45:11;;;;;;;17.60;4.10;;;12.40;99.90;;;;;;5035740;28;20052;-45
2022/11/03 08:47:38;;;;;;;15.95;3.63;;;12.40;99.90;;;;;;5037156;28;20095;-47
2022/11/03 08:50:06;;;;;;;15.98;3.92;;;12.50;99.90;;;;;;5036915;28;20084;-46
2022/11/03 08:52:33;;;;;;;16.98;4.32;;;12.50;99.90;;;;;;5035817;28;20052;-45
2022/11/03 08:55:01;;;;;;;19.90;4.07;;;12.50;99.90;;;;;;5052070;28;20136;-42
2022/11/03 08:57:28;;;;;;;17.73;4.40;;;12.60;99.90;;;;;;5051904;28;20045;-45
2022/11/03 08:59:56;;;;;;;14.43;3.28;;;12.60;99.90;;;;;;5048651;28;20065;-43
2022/11/03 09:02:23;;;;;;;16.85;4.32;;;12.70;99.90;;;;;;5047308;28;20409;-44
2022/11/03 09:04:50;;;;;;;17.70;3.70;;;12.70;99.90;;;;;;5037741;28;20090;-42
2022/11/03 09:07:17;;;;;;;19.77;4.05;;;12.80;99.90;;;;;;5052860;28;20044;-45
2022/11/03 09:09:43;;;;;;;13.20;3.25;;;12.80;99.90;;;;;;5034809;28;20445;-41
2022/11/03 09:12:11;;;;;;;21.45;4.40;;;12.80;99.90;;;;;;5054703;28;20131;-43
2022/11/03 09:14:39;;;;;;;23.27;4.25;;;12.90;99.90;;;;;;5035728;28;20045;-46
2022/11/03 09:17:06;;;;;;;18.70;3.67;;;12.90;99.90;;;;;;5052900;28;20503;-43
2022/11/03 09:19:32;;;;;;;22.42;4.40;;;13.00;99.90;;;;;;5036705;28;20057;-43
2022/11/03 09:21:59;;;;;;;16.30;3.47;;;13.00;99.90;;;;;;5053141;28;20124;-41
2022/11/03 09:24:26;;;;;;;18.02;4.05;;;13.10;99.90;;;;;;5021263;28;20152;-44
2022/11/03 09:26:53;;;;;;;14.02;3.63;;;13.10;99.90;;;;;;5054980;28;20385;-43
2022/11/03 09:29:21;;;;;;;19.00;3.90;;;13.20;99.90;;;;;;5035917;28;20047;-42
2022/11/03 09:31:48;;;;;;;14.18;3.70;;;13.30;99.90;;;;;;5034986;28;20132;-43
2022/11/03 09:34:15;;;;;;;17.25;3.70;;;13.30;99.90;;;;;;5054783;28;20084;-42
2022/11/03 09:36:41;;;;;;;19.33;3.50;;;13.40;99.90;;;;;;5044197;28;20080;-42
2022/11/03 09:39:08;;;;;;;16.90;3.97;;;13.50;99.90;;;;;;5052379;28;20057;-44
2022/11/03 09:41:35;;;;;;;16.35;3.92;;;13.60;99.90;;;;;;5050201;28;20083;-43
2022/11/03 09:44:02;;;;;;;11.90;3.53;;;13.70;99.90;;;;;;5031434;28;20056;-42
2022/11/03 09:46:30;;;;;;;14.48;3.50;;;13.80;99.90;;;;;;5050974;28;20080;-43
2022/11/03 09:48:57;;;;;;;15.75;4.00;;;13.90;99.90;;;;;;5052906;28;20056;-42
2022/11/03 09:51:24;;;;;;;15.88;4.10;;;14.00;99.90;;;;;;5050805;28;20129;-42
2022/11/03 09:53:51;;;;;;;18.38;4.05;;;14.00;99.90;;;;;;5049997;28;20053;-41
2022/11/03 09:56:19;;;;;;;13.60;3.22;;;14.10;99.90;;;;;;5036527;28;20088;-43
2022/11/03 09:58:46;;;;;;;17.10;4.10;;;14.10;99.90;;;;;;5052956;28;20114;-43
2022/11/03 10:01:13;;;;;;;18.40;3.55;;;14.20;99.90;;;;;;5035511;28;20146;-41
2022/11/03 10:03:41;;;;;;;16.55;3.70;;;14.20;99.90;;;;;;5033282;28;20085;-42
2022/11/03 10:06:08;;;;;;;11.48;3.53;;;14.20;99.90;;;;;;5052517;28;20052;-44
2022/11/03 10:08:35;;;;;;;13.68;3.50;;;14.20;99.90;;;;;;5052338;28;20052;-42
2022/11/03 10:11:03;;;;;;;17.20;4.22;;;14.30;99.90;;;;;;5049622;28;20049;-45
2022/11/03 10:13:31;;;;;;;18.15;3.30;;;14.30;99.90;;;;;;5039814;28;20055;-46
2022/11/03 10:15:58;;;;;;;12.35;3.03;;;14.40;99.90;;;;;;5034283;28;20059;-42
2022/11/03 10:18:25;;;;;;;14.85;3.42;;;14.50;99.90;;;;;;5034728;28;20053;-46
2022/11/03 10:20:54;;;;;;;23.13;3.30;;;14.60;99.90;;;;;;5046605;28;20105;-43
2022/11/03 10:23:20;;;;;;;21.13;3.78;;;14.70;99.90;;;;;;5033880;28;20140;-43
2022/11/03 10:25:47;;;;;;;19.38;4.40;;;14.90;99.90;;;;;;5053367;28;20547;-43
2022/11/03 10:28:19;;;;;;;10.77;2.67;;;15.00;99.90;;;;;;5053496;28;20045;-45
2022/11/03 10:30:53;;;;;;;15.88;3.53;;;15.10;99.90;;;;;;5050138;28;20087;-44
2022/11/03 10:33:30;;;;;;;14.15;3.30;;;15.20;99.90;;;;;;5052890;28;20065;-42
2022/11/03 10:35:59;;;;;;;15.00;3.03;;;15.20;99.90;;;;;;5051858;28;20057;-45
2022/11/03 10:38:30;;;;;;;18.75;3.70;;;15.20;99.90;;;;;;5048982;28;20541;-44
2022/11/03 10:40:57;;;;;;;15.25;3.03;;;15.20;99.90;;;;;;5045007;28;20044;-44
2022/11/03 10:43:24;;;;;;;12.57;3.03;;;15.20;99.90;;;;;;5049296;28;20405;-44
2022/11/03 10:45:54;;;;;;;13.90;3.42;;;15.20;99.90;;;;;;5043887;28;20128;-44
2022/11/03 10:48:21;;;;;;;12.95;2.90;;;15.20;99.90;;;;;;5047349;28;20455;-42
2022/11/03 10:50:48;;;;;;;12.23;3.20;;;15.20;99.90;;;;;;5026026;28;20063;-44
2022/11/03 10:53:18;;;;;;;11.90;2.92;;;15.20;99.90;;;;;;5051939;28;20084;-44
2022/11/03 10:55:45;;;;;;;16.67;3.50;;;15.20;99.90;;;;;;5050334;28;20138;-43
2022/11/03 10:58:11;;;;;;;12.52;2.95;;;15.20;99.90;;;;;;5042910;28;20137;-44
2022/11/03 11:00:40;;;;;;;15.32;3.33;;;15.30;99.90;;;;;;5041918;28;20044;-42
2022/11/03 11:03:07;;;;;;;14.07;2.88;;;15.40;99.90;;;;;;5030978;28;20137;-41
2022/11/03 11:05:33;;;;;;;13.30;3.15;;;15.50;99.90;;;;;;5050540;28;20138;-41
2022/11/03 11:08:01;;;;;;;7.93;2.47;;;15.70;99.90;;;;;;5043547;28;20386;-44
2022/11/03 11:10:30;;;;;;;12.45;2.90;;;15.80;99.90;;;;;;5047784;28;20119;-42
2022/11/03 11:13:23;;;;;;;12.20;2.40;;;16.00;99.90;;;;;;5027927;28;20115;-43
2022/11/03 11:15:50;;;;;;;16.67;2.80;;;16.10;99.90;;;;;;5039127;28;20049;-43
2022/11/03 11:18:50;;;;;;;12.00;2.60;;;16.10;99.90;;;;;;5052709;28;20484;-44
2022/11/03 11:22:09;;;;;;;15.55;3.22;;;16.10;99.90;;;;;;5030478;28;20052;-42
2022/11/03 11:25:02;;;;;;;12.80;2.67;;;16.00;99.90;;;;;;5043205;28;20319;-44
2022/11/03 11:27:56;;;;;;;15.52;3.55;;;15.90;99.90;;;;;;5049869;28;20041;-44
2022/11/03 11:31:03;;;;;;;14.65;2.90;;;15.80;99.90;;;;;;5046344;28;20473;-42
2022/11/03 11:33:33;;;;;;;12.57;2.53;;;15.90;99.90;;;;;;5029861;28;20075;-44
2022/11/03 11:36:27;;;;;;;13.70;2.92;;;15.90;99.90;;;;;;5051348;28;20045;-44
2022/11/03 11:38:57;;;;;;;11.85;2.75;;;15.90;99.90;;;;;;5048340;28;20138;-44
2022/11/03 11:42:01;;;;;;;12.15;2.92;;;15.80;99.90;;;;;;5034606;28;20489;-42
2022/11/03 11:45:03;;;;;;;10.20;2.35;;;15.90;99.90;;;;;;5049422;28;20076;-44
2022/11/03 11:47:46;;;;;;;11.73;2.67;;;15.90;99.90;;;;;;5035682;28;20064;-43
2022/11/03 11:50:32;;;;;;;9.05;2.40;;;15.80;99.90;;;;;;5028876;28;20093;-43
2022/11/03 11:53:04;;;;;;;14.15;3.10;;;15.80;99.90;;;;;;5045488;28;20485;-45
2022/11/03 11:55:37;;;;;;;10.75;2.42;;;15.80;99.90;;;;;;5057557;28;20084;-42
2022/11/03 11:58:04;;;;;;;12.82;2.97;;;15.80;99.90;;;;;;5049365;28;20052;-44
2022/11/03 12:00:33;;;;;;;10.52;2.50;;;15.80;99.90;;;;;;5024715;28;20578;-45
2022/11/03 12:03:00;;;;;;;12.88;2.88;;;15.70;99.90;;;;;;5028459;28;20547;-43
2022/11/03 12:05:29;;;;;;;13.30;2.40;;;15.70;99.90;;;;;;5052273;28;20136;-44
2022/11/03 12:07:55;;;;;;;11.90;2.30;;;15.70;99.90;;;;;;5032992;28;20073;-44
2022/11/03 12:10:25;;;;;;;9.88;2.78;;;15.70;99.90;;;;;;5031432;28;20091;-46
2022/11/03 12:12:51;;;;;;;9.30;2.30;;;15.70;99.90;;;;;;5052055;28;20045;-45
2022/11/03 12:16:04;;;;;;;8.00;2.30;;;15.70;99.90;;;;;;5052099;28;20096;-43
2022/11/03 12:18:36;;;;;;;7.85;2.20;;;15.70;99.90;;;;;;4993496;28;20049;-44
2022/11/03 12:21:04;;;;;;;12.50;3.00;;;15.70;99.90;;;;;;5034462;28;20057;-45
2022/11/03 12:23:40;;;;;;;11.55;2.90;;;15.60;99.90;;;;;;5052146;28;20087;-44
2022/11/03 12:26:12;;;;;;;11.40;2.58;;;15.60;99.90;;;;;;5040841;28;20493;-42
2022/11/03 12:28:39;;;;;;;11.48;2.67;;;15.60;99.90;;;;;;5031735;28;20094;-44
2022/11/03 12:31:05;;;;;;;14.23;2.63;;;15.60;99.90;;;;;;5032207;28;20088;-44
2022/11/03 12:33:33;;;;;;;10.20;2.80;;;15.60;99.90;;;;;;5051123;28;20057;-47
2022/11/03 12:36:00;;;;;;;9.40;2.25;;;15.60;99.90;;;;;;5051957;28;20541;-45
2022/11/03 12:38:27;;;;;;;8.32;2.08;;;15.60;99.90;;;;;;5030200;28;20054;-44
2022/11/03 12:40:54;;;;;;;11.20;2.72;;;15.70;99.90;;;;;;5014718;28;20100;-43
2022/11/03 12:43:21;;;;;;;15.77;2.90;;;15.70;99.90;;;;;;5047447;28;20084;-45
2022/11/03 12:45:47;;;;;;;8.73;2.33;;;15.70;99.90;;;;;;5034417;28;20045;-44
2022/11/03 12:48:14;;;;;;;9.38;2.50;;;15.80;99.90;;;;;;5055666;28;20452;-46
2022/11/03 12:50:42;;;;;;;9.32;2.60;;;15.90;99.90;;;;;;5055722;28;20053;-45
2022/11/03 12:53:09;;;;;;;10.05;2.33;;;15.90;99.90;;;;;;5054735;28;20064;-44
2022/11/03 12:55:36;;;;;;;13.48;2.58;;;16.10;99.90;;;;;;5054347;28;20089;-46
2022/11/03 12:58:03;;;;;;;11.98;2.20;;;16.20;99.90;;;;;;5035033;28;20076;-43
2022/11/03 13:00:30;;;;;;;9.63;2.30;;;16.20;99.90;;;;;;5052293;28;20048;-46
2022/11/03 13:02:56;;;;;;;8.90;2.30;;;16.20;99.90;;;;;;5037524;28;20056;-43
2022/11/03 13:05:24;;;;;;;7.90;2.38;;;16.20;99.90;;;;;;5055364;28;20084;-42
2022/11/03 13:07:53;;;;;;;15.35;2.53;;;16.10;99.90;;;;;;5036970;28;20045;-42
2022/11/03 13:10:19;;;;;;;10.18;2.05;;;16.00;99.90;;;;;;5053145;28;20143;-46
2022/11/03 13:12:46;;;;;;;9.85;2.40;;;16.00;99.90;;;;;;5055305;28;20158;-46
2022/11/03 13:15:14;;;;;;;9.48;2.83;;;16.00;99.90;;;;;;5037602;28;20099;-45
2022/11/03 13:17:41;;;;;;;8.65;2.15;;;16.00;99.90;;;;;;5037062;28;20091;-43
2022/11/03 13:20:09;;;;;;;12.13;2.50;;;15.90;99.90;;;;;;5053223;28;20069;-45
2022/11/03 13:22:37;;;;;;;10.25;2.10;;;15.90;99.90;;;;;;5053575;28;20049;-44
2022/11/03 13:25:06;;;;;;;11.60;2.45;;;15.90;99.90;;;;;;5053929;28;20485;-44
2022/11/03 13:27:33;;;;;;;9.88;2.47;;;15.90;99.90;;;;;;5031345;28;20076;-42
2022/11/03 13:30:00;;;;;;;8.95;2.53;;;15.90;99.90;;;;;;5049734;28;20099;-44
2022/11/03 13:32:26;;;;;;;10.10;2.03;;;15.90;99.90;;;;;;5032141;28;20560;-45
2022/11/03 13:34:53;;;;;;;11.70;2.25;;;15.90;99.90;;;;;;5051903;28;20064;-43
2022/11/03 13:37:20;;;;;;;7.75;2.10;;;15.90;99.90;;;;;;5051629;28;20140;-43
2022/11/03 13:39:47;;;;;;;10.25;2.30;;;15.90;99.90;;;;;;5049522;28;20080;-44
2022/11/03 13:42:15;;;;;;;10.02;1.73;;;15.90;99.90;;;;;;5031875;28;20053;-42
2022/11/03 13:44:42;;;;;;;8.93;2.30;;;15.80;99.90;;;;;;5054124;28;20136;-43
2022/11/03 13:47:08;;;;;;;11.13;2.47;;;15.80;99.90;;;;;;5039610;28;20141;-43
2022/11/03 13:49:35;;;;;;;8.93;1.85;;;15.80;99.90;;;;;;5052932;28;20103;-45
2022/11/03 13:52:02;;;;;;;12.80;2.47;;;15.80;99.90;;;;;;5032637;28;20064;-43
2022/11/03 13:54:29;;;;;;;5.78;1.85;;;15.70;99.90;;;;;;5047185;28;20047;-47
2022/11/03 13:56:55;;;;;;;10.32;2.17;;;15.70;99.90;;;;;;5036586;28;20096;-43
2022/11/03 13:59:23;;;;;;;7.10;1.75;;;15.70;99.90;;;;;;5023112;28;20089;-45
2022/11/03 14:01:50;;;;;;;8.25;1.80;;;15.60;99.90;;;;;;5027603;28;20084;-45
2022/11/03 14:04:17;;;;;;;7.72;1.90;;;15.60;99.90;;;;;;5044032;28;20057;-45
2022/11/03 14:06:44;;;;;;;6.88;1.65;;;15.60;99.90;;;;;;5051571;28;20087;-46
2022/11/03 14:09:11;;;;;;;7.45;1.90;;;15.60;99.90;;;;;;5032405;28;20050;-46
2022/11/03 14:14:23;;;;;;;6.53;1.98;;;15.60;99.90;;;;;;5051036;28;20045;-41
2022/11/03 14:16:50;;;;;;;7.28;2.00;;;15.70;99.90;;;;;;5035663;28;20098;-43
2022/11/03 14:19:17;;;;;;;9.60;1.98;;;15.70;99.90;;;;;;5049699;28;20049;-43
2022/11/03 14:21:43;;;;;;;7.68;2.20;;;15.70;99.90;;;;;;5062592;28;20076;-46
2022/11/03 14:24:10;;;;;;;9.25;2.10;;;15.60;99.90;;;;;;5049240;28;20464;-46
2022/11/03 14:26:37;;;;;;;9.85;1.98;;;15.60;99.90;;;;;;5047708;28;20053;-45
2022/11/03 14:29:04;;;;;;;7.75;1.90;;;15.60;99.90;;;;;;5033804;28;20115;-47
2022/11/03 14:31:33;;;;;;;8.82;2.15;;;15.60;99.90;;;;;;5051043;28;20072;-45
2022/11/03 14:34:00;;;;;;;8.27;2.30;;;15.60;99.90;;;;;;5046085;28;20080;-46
2022/11/03 14:36:27;;;;;;;9.10;2.35;;;15.60;99.90;;;;;;5049810;28;20116;-44
2022/11/03 14:38:54;;;;;;;7.15;2.03;;;15.60;99.90;;;;;;5051493;28;20126;-46
2022/11/03 14:44:05;;;;;;;6.65;1.83;;;15.50;99.90;;;;;;5039989;28;20481;-46
2022/11/03 14:46:33;;;;;;;12.00;2.00;;;15.50;99.90;;;;;;5051582;28;20575;-44